sensor_id;sensor_type;location;lat;lon;timestamp;P1;durP1;ratioP1;P2;durP2;ratioP2
36747;SDS011;22716;51.556;5.080;2023-02-28T00:00:26;6.70;;;4.17;;
36747;SDS011;22716;51.556;5.080;2023-02-28T00:02:55;11.60;;;5.00;;
36747;SDS011;22716;51.556;5.080;2023-02-28T00:05:26;8.17;;;4.33;;
36747;SDS011;22716;51.556;5.080;2023-02-28T00:07:56;6.17;;;4.53;;
36747;SDS011;22716;51.556;5.080;2023-02-28T00:10:26;6.07;;;4.23;;
36747;SDS011;22716;51.556;5.080;2023-02-28T00:12:59;8.80;;;3.93;;
36747;SDS011;22716;51.556;5.080;2023-02-28T00:15:29;7.70;;;4.53;;
36747;SDS011;22716;51.556;5.080;2023-02-28T00:17:58;5.40;;;3.87;;
36747;SDS011;22716;51.556;5.080;2023-02-28T00:20:31;8.33;;;4.20;;
36747;SDS011;22716;51.556;5.080;2023-02-28T00:22:59;7.30;;;3.90;;
36747;SDS011;22716;51.556;5.080;2023-02-28T00:25:28;7.63;;;3.70;;
36747;SDS011;22716;51.556;5.080;2023-02-28T00:27:57;5.53;;;3.77;;
36747;SDS011;22716;51.556;5.080;2023-02-28T00:30:26;7.30;;;4.20;;
36747;SDS011;22716;51.556;5.080;2023-02-28T00:32:54;7.23;;;4.70;;
36747;SDS011;22716;51.556;5.080;2023-02-28T00:35:24;11.93;;;4.70;;
36747;SDS011;22716;51.556;5.080;2023-02-28T00:37:56;7.90;;;5.43;;
36747;SDS011;22716;51.556;5.080;2023-02-28T00:40:24;8.23;;;4.83;;
36747;SDS011;22716;51.556;5.080;2023-02-28T00:42:53;7.07;;;4.57;;
36747;SDS011;22716;51.556;5.080;2023-02-28T00:45:22;7.03;;;4.93;;
36747;SDS011;22716;51.556;5.080;2023-02-28T00:47:51;7.17;;;5.10;;
36747;SDS011;22716;51.556;5.080;2023-02-28T00:50:20;8.77;;;5.00;;
36747;SDS011;22716;51.556;5.080;2023-02-28T00:52:49;5.50;;;3.80;;
36747;SDS011;22716;51.556;5.080;2023-02-28T00:55:20;5.23;;;3.63;;
36747;SDS011;22716;51.556;5.080;2023-02-28T00:57:49;8.80;;;4.20;;
36747;SDS011;22716;51.556;5.080;2023-02-28T01:00:18;5.93;;;4.47;;
36747;SDS011;22716;51.556;5.080;2023-02-28T01:02:47;6.50;;;4.63;;
36747;SDS011;22716;51.556;5.080;2023-02-28T01:05:16;6.90;;;4.10;;
36747;SDS011;22716;51.556;5.080;2023-02-28T01:07:45;6.50;;;4.33;;
36747;SDS011;22716;51.556;5.080;2023-02-28T01:10:13;5.97;;;3.63;;
36747;SDS011;22716;51.556;5.080;2023-02-28T01:12:45;6.53;;;4.33;;
36747;SDS011;22716;51.556;5.080;2023-02-28T01:15:14;6.33;;;3.70;;
36747;SDS011;22716;51.556;5.080;2023-02-28T01:17:42;5.73;;;4.33;;
36747;SDS011;22716;51.556;5.080;2023-02-28T01:20:12;11.43;;;4.80;;
36747;SDS011;22716;51.556;5.080;2023-02-28T01:22:41;8.27;;;4.20;;
36747;SDS011;22716;51.556;5.080;2023-02-28T01:25:10;10.87;;;4.27;;
36747;SDS011;22716;51.556;5.080;2023-02-28T01:27:38;7.07;;;4.20;;
36747;SDS011;22716;51.556;5.080;2023-02-28T01:30:11;6.03;;;4.50;;
36747;SDS011;22716;51.556;5.080;2023-02-28T01:32:40;7.80;;;4.43;;
36747;SDS011;22716;51.556;5.080;2023-02-28T01:35:08;5.90;;;4.37;;
36747;SDS011;22716;51.556;5.080;2023-02-28T01:37:37;7.40;;;4.67;;
36747;SDS011;22716;51.556;5.080;2023-02-28T01:40:07;9.33;;;4.73;;
36747;SDS011;22716;51.556;5.080;2023-02-28T01:42:37;5.93;;;4.23;;
36747;SDS011;22716;51.556;5.080;2023-02-28T01:45:16;7.93;;;4.63;;
36747;SDS011;22716;51.556;5.080;2023-02-28T01:47:50;8.73;;;4.53;;
36747;SDS011;22716;51.556;5.080;2023-02-28T01:50:22;9.10;;;4.13;;
36747;SDS011;22716;51.556;5.080;2023-02-28T01:52:55;5.80;;;4.30;;
36747;SDS011;22716;51.556;5.080;2023-02-28T01:55:28;10.33;;;3.97;;
36747;SDS011;22716;51.556;5.080;2023-02-28T01:57:58;4.60;;;3.17;;
36747;SDS011;22716;51.556;5.080;2023-02-28T02:00:32;6.50;;;3.70;;
36747;SDS011;22716;51.556;5.080;2023-02-28T02:03:05;5.57;;;4.13;;
36747;SDS011;22716;51.556;5.080;2023-02-28T02:05:37;4.90;;;3.63;;
36747;SDS011;22716;51.556;5.080;2023-02-28T02:08:13;6.73;;;3.83;;
36747;SDS011;22716;51.556;5.080;2023-02-28T02:10:47;5.40;;;3.70;;
36747;SDS011;22716;51.556;5.080;2023-02-28T02:13:22;6.43;;;3.50;;
36747;SDS011;22716;51.556;5.080;2023-02-28T02:16:04;14.60;;;4.17;;
36747;SDS011;22716;51.556;5.080;2023-02-28T02:18:42;5.73;;;3.80;;
36747;SDS011;22716;51.556;5.080;2023-02-28T02:27:25;6.88;;;4.05;;
36747;SDS011;22716;51.556;5.080;2023-02-28T02:30:09;8.05;;;4.03;;
36747;SDS011;22716;51.556;5.080;2023-02-28T02:35:53;9.37;;;4.37;;
36747;SDS011;22716;51.556;5.080;2023-02-28T02:38:28;10.77;;;3.92;;
36747;SDS011;22716;51.556;5.080;2023-02-28T02:41:04;9.43;;;4.87;;
36747;SDS011;22716;51.556;5.080;2023-02-28T02:43:39;4.73;;;3.10;;
36747;SDS011;22716;51.556;5.080;2023-02-28T02:46:14;7.88;;;4.35;;
36747;SDS011;22716;51.556;5.080;2023-02-28T02:48:48;6.37;;;3.60;;
36747;SDS011;22716;51.556;5.080;2023-02-28T02:51:22;5.17;;;3.20;;
36747;SDS011;22716;51.556;5.080;2023-02-28T02:53:54;4.83;;;3.63;;
36747;SDS011;22716;51.556;5.080;2023-02-28T02:56:25;5.23;;;3.57;;
36747;SDS011;22716;51.556;5.080;2023-02-28T02:58:59;7.27;;;3.63;;
36747;SDS011;22716;51.556;5.080;2023-02-28T03:01:30;8.43;;;3.67;;
36747;SDS011;22716;51.556;5.080;2023-02-28T03:04:01;4.33;;;3.30;;
36747;SDS011;22716;51.556;5.080;2023-02-28T03:06:36;4.90;;;4.27;;
36747;SDS011;22716;51.556;5.080;2023-02-28T03:09:05;6.93;;;2.80;;
36747;SDS011;22716;51.556;5.080;2023-02-28T03:11:34;6.50;;;4.20;;
36747;SDS011;22716;51.556;5.080;2023-02-28T03:14:08;7.00;;;3.40;;
36747;SDS011;22716;51.556;5.080;2023-02-28T03:16:49;5.20;;;3.77;;
36747;SDS011;22716;51.556;5.080;2023-02-28T03:19:46;7.50;;;4.07;;
36747;SDS011;22716;51.556;5.080;2023-02-28T03:22:33;5.40;;;3.53;;
36747;SDS011;22716;51.556;5.080;2023-02-28T03:25:24;5.53;;;3.67;;
36747;SDS011;22716;51.556;5.080;2023-02-28T03:28:00;4.83;;;3.60;;
36747;SDS011;22716;51.556;5.080;2023-02-28T03:30:39;5.27;;;3.30;;
36747;SDS011;22716;51.556;5.080;2023-02-28T03:33:17;4.90;;;3.27;;
36747;SDS011;22716;51.556;5.080;2023-02-28T03:35:51;5.30;;;2.97;;
36747;SDS011;22716;51.556;5.080;2023-02-28T03:38:28;4.80;;;3.30;;
36747;SDS011;22716;51.556;5.080;2023-02-28T03:41:04;6.87;;;2.97;;
36747;SDS011;22716;51.556;5.080;2023-02-28T03:43:38;5.60;;;3.63;;
36747;SDS011;22716;51.556;5.080;2023-02-28T03:46:12;7.90;;;3.50;;
36747;SDS011;22716;51.556;5.080;2023-02-28T03:48:48;6.80;;;3.17;;
36747;SDS011;22716;51.556;5.080;2023-02-28T03:51:22;6.07;;;3.77;;
36747;SDS011;22716;51.556;5.080;2023-02-28T03:53:58;5.10;;;3.23;;
36747;SDS011;22716;51.556;5.080;2023-02-28T03:56:31;4.60;;;3.40;;
36747;SDS011;22716;51.556;5.080;2023-02-28T03:59:04;4.60;;;2.93;;
36747;SDS011;22716;51.556;5.080;2023-02-28T04:01:37;6.72;;;3.65;;
36747;SDS011;22716;51.556;5.080;2023-02-28T04:04:09;5.07;;;3.50;;
36747;SDS011;22716;51.556;5.080;2023-02-28T04:06:40;5.30;;;3.67;;
36747;SDS011;22716;51.556;5.080;2023-02-28T04:09:13;9.53;;;4.53;;
36747;SDS011;22716;51.556;5.080;2023-02-28T04:11:42;5.73;;;3.53;;
36747;SDS011;22716;51.556;5.080;2023-02-28T04:14:14;8.43;;;3.17;;
36747;SDS011;22716;51.556;5.080;2023-02-28T04:16:42;5.60;;;3.13;;
36747;SDS011;22716;51.556;5.080;2023-02-28T04:19:12;4.13;;;3.40;;
36747;SDS011;22716;51.556;5.080;2023-02-28T04:21:43;7.60;;;3.67;;
36747;SDS011;22716;51.556;5.080;2023-02-28T04:24:17;6.83;;;3.40;;
36747;SDS011;22716;51.556;5.080;2023-02-28T04:26:48;4.27;;;3.70;;
36747;SDS011;22716;51.556;5.080;2023-02-28T04:29:19;6.67;;;3.70;;
36747;SDS011;22716;51.556;5.080;2023-02-28T04:31:50;6.33;;;3.93;;
36747;SDS011;22716;51.556;5.080;2023-02-28T04:34:19;6.60;;;3.67;;
36747;SDS011;22716;51.556;5.080;2023-02-28T04:36:50;7.27;;;3.77;;
36747;SDS011;22716;51.556;5.080;2023-02-28T04:39:22;4.57;;;3.20;;
36747;SDS011;22716;51.556;5.080;2023-02-28T04:41:52;12.13;;;3.30;;
36747;SDS011;22716;51.556;5.080;2023-02-28T04:44:21;4.47;;;3.60;;
36747;SDS011;22716;51.556;5.080;2023-02-28T04:46:50;9.57;;;3.23;;
36747;SDS011;22716;51.556;5.080;2023-02-28T04:49:19;5.47;;;3.30;;
36747;SDS011;22716;51.556;5.080;2023-02-28T04:51:47;5.17;;;3.17;;
36747;SDS011;22716;51.556;5.080;2023-02-28T04:54:16;9.80;;;2.87;;
36747;SDS011;22716;51.556;5.080;2023-02-28T04:56:47;7.37;;;3.17;;
36747;SDS011;22716;51.556;5.080;2023-02-28T04:59:16;4.63;;;2.90;;
36747;SDS011;22716;51.556;5.080;2023-02-28T05:01:46;6.23;;;2.80;;
36747;SDS011;22716;51.556;5.080;2023-02-28T05:04:16;6.70;;;3.37;;
36747;SDS011;22716;51.556;5.080;2023-02-28T05:06:45;4.57;;;3.07;;
36747;SDS011;22716;51.556;5.080;2023-02-28T05:09:13;5.80;;;3.47;;
36747;SDS011;22716;51.556;5.080;2023-02-28T05:11:42;5.93;;;2.60;;
36747;SDS011;22716;51.556;5.080;2023-02-28T05:14:13;7.90;;;3.50;;
36747;SDS011;22716;51.556;5.080;2023-02-28T05:16:42;4.43;;;3.40;;
36747;SDS011;22716;51.556;5.080;2023-02-28T05:19:11;5.37;;;2.67;;
36747;SDS011;22716;51.556;5.080;2023-02-28T05:21:40;7.73;;;2.77;;
36747;SDS011;22716;51.556;5.080;2023-02-28T05:24:16;6.30;;;2.90;;
36747;SDS011;22716;51.556;5.080;2023-02-28T05:26:48;9.97;;;3.10;;
36747;SDS011;22716;51.556;5.080;2023-02-28T05:29:21;6.03;;;3.07;;
36747;SDS011;22716;51.556;5.080;2023-02-28T05:31:50;4.57;;;2.90;;
36747;SDS011;22716;51.556;5.080;2023-02-28T05:34:19;9.47;;;3.47;;
36747;SDS011;22716;51.556;5.080;2023-02-28T05:36:47;6.03;;;3.00;;
36747;SDS011;22716;51.556;5.080;2023-02-28T05:39:16;5.97;;;2.70;;
36747;SDS011;22716;51.556;5.080;2023-02-28T05:41:45;5.13;;;2.90;;
36747;SDS011;22716;51.556;5.080;2023-02-28T05:44:13;4.60;;;3.30;;
36747;SDS011;22716;51.556;5.080;2023-02-28T05:46:46;7.43;;;2.50;;
36747;SDS011;22716;51.556;5.080;2023-02-28T05:49:15;6.17;;;2.73;;
36747;SDS011;22716;51.556;5.080;2023-02-28T05:51:43;3.20;;;2.90;;
36747;SDS011;22716;51.556;5.080;2023-02-28T05:54:12;3.80;;;3.07;;
36747;SDS011;22716;51.556;5.080;2023-02-28T05:56:41;4.37;;;3.13;;
36747;SDS011;22716;51.556;5.080;2023-02-28T05:59:11;9.23;;;3.20;;
36747;SDS011;22716;51.556;5.080;2023-02-28T06:01:41;8.90;;;3.17;;
36747;SDS011;22716;51.556;5.080;2023-02-28T06:04:16;6.60;;;2.93;;
36747;SDS011;22716;51.556;5.080;2023-02-28T06:06:47;3.90;;;2.90;;
36747;SDS011;22716;51.556;5.080;2023-02-28T06:09:17;3.57;;;3.00;;
36747;SDS011;22716;51.556;5.080;2023-02-28T06:11:46;4.40;;;3.33;;
36747;SDS011;22716;51.556;5.080;2023-02-28T06:14:16;7.00;;;3.30;;
36747;SDS011;22716;51.556;5.080;2023-02-28T06:16:46;5.50;;;3.60;;
36747;SDS011;22716;51.556;5.080;2023-02-28T06:19:17;4.87;;;3.37;;
36747;SDS011;22716;51.556;5.080;2023-02-28T06:21:48;4.47;;;3.00;;
36747;SDS011;22716;51.556;5.080;2023-02-28T06:24:17;5.00;;;3.10;;
36747;SDS011;22716;51.556;5.080;2023-02-28T06:26:46;3.97;;;2.70;;
36747;SDS011;22716;51.556;5.080;2023-02-28T06:29:15;7.53;;;2.87;;
36747;SDS011;22716;51.556;5.080;2023-02-28T06:31:44;7.33;;;2.97;;
36747;SDS011;22716;51.556;5.080;2023-02-28T06:34:14;7.27;;;3.00;;
36747;SDS011;22716;51.556;5.080;2023-02-28T06:36:45;10.40;;;3.77;;
36747;SDS011;22716;51.556;5.080;2023-02-28T06:39:14;4.10;;;2.60;;
36747;SDS011;22716;51.556;5.080;2023-02-28T06:41:43;5.00;;;2.70;;
36747;SDS011;22716;51.556;5.080;2023-02-28T06:44:13;4.43;;;2.90;;
36747;SDS011;22716;51.556;5.080;2023-02-28T06:46:43;6.67;;;3.10;;
36747;SDS011;22716;51.556;5.080;2023-02-28T06:49:13;3.17;;;2.60;;
36747;SDS011;22716;51.556;5.080;2023-02-28T06:51:45;6.17;;;3.63;;
36747;SDS011;22716;51.556;5.080;2023-02-28T06:54:13;3.63;;;2.43;;
36747;SDS011;22716;51.556;5.080;2023-02-28T06:56:42;5.83;;;3.90;;
36747;SDS011;22716;51.556;5.080;2023-02-28T06:59:12;5.37;;;3.40;;
36747;SDS011;22716;51.556;5.080;2023-02-28T07:01:41;5.50;;;3.63;;
36747;SDS011;22716;51.556;5.080;2023-02-28T07:04:10;12.47;;;3.70;;
36747;SDS011;22716;51.556;5.080;2023-02-28T07:06:39;14.03;;;3.83;;
36747;SDS011;22716;51.556;5.080;2023-02-28T07:09:11;5.00;;;3.30;;
36747;SDS011;22716;51.556;5.080;2023-02-28T07:11:40;7.67;;;3.17;;
36747;SDS011;22716;51.556;5.080;2023-02-28T07:14:09;6.47;;;3.20;;
36747;SDS011;22716;51.556;5.080;2023-02-28T07:16:37;8.93;;;3.60;;
36747;SDS011;22716;51.556;5.080;2023-02-28T07:19:06;7.23;;;3.47;;
36747;SDS011;22716;51.556;5.080;2023-02-28T07:21:35;8.20;;;3.87;;
36747;SDS011;22716;51.556;5.080;2023-02-28T07:24:04;6.03;;;2.90;;
36747;SDS011;22716;51.556;5.080;2023-02-28T07:26:36;4.37;;;2.60;;
36747;SDS011;22716;51.556;5.080;2023-02-28T07:29:05;6.17;;;2.43;;
36747;SDS011;22716;51.556;5.080;2023-02-28T07:31:34;6.00;;;3.40;;
36747;SDS011;22716;51.556;5.080;2023-02-28T07:34:03;7.17;;;3.27;;
36747;SDS011;22716;51.556;5.080;2023-02-28T07:36:31;6.13;;;2.63;;
36747;SDS011;22716;51.556;5.080;2023-02-28T07:39:00;9.93;;;2.70;;
36747;SDS011;22716;51.556;5.080;2023-02-28T07:41:29;13.13;;;3.90;;
36747;SDS011;22716;51.556;5.080;2023-02-28T07:44:02;6.00;;;3.17;;
36747;SDS011;22716;51.556;5.080;2023-02-28T07:46:30;3.20;;;2.60;;
36747;SDS011;22716;51.556;5.080;2023-02-28T07:49:00;4.70;;;2.50;;
36747;SDS011;22716;51.556;5.080;2023-02-28T07:51:29;6.37;;;2.97;;
36747;SDS011;22716;51.556;5.080;2023-02-28T07:53:58;10.53;;;3.13;;
36747;SDS011;22716;51.556;5.080;2023-02-28T07:56:27;4.97;;;3.43;;
36747;SDS011;22716;51.556;5.080;2023-02-28T07:58:56;7.07;;;2.70;;
36747;SDS011;22716;51.556;5.080;2023-02-28T08:01:27;5.03;;;2.27;;
36747;SDS011;22716;51.556;5.080;2023-02-28T08:03:56;5.27;;;2.73;;
36747;SDS011;22716;51.556;5.080;2023-02-28T08:06:25;4.63;;;2.60;;
36747;SDS011;22716;51.556;5.080;2023-02-28T08:08:54;5.73;;;2.60;;
36747;SDS011;22716;51.556;5.080;2023-02-28T08:11:24;13.70;;;3.83;;
36747;SDS011;22716;51.556;5.080;2023-02-28T08:13:54;12.17;;;2.50;;
36747;SDS011;22716;51.556;5.080;2023-02-28T08:16:24;5.50;;;1.63;;
36747;SDS011;22716;51.556;5.080;2023-02-28T08:18:55;3.53;;;1.80;;
36747;SDS011;22716;51.556;5.080;2023-02-28T08:21:24;6.23;;;1.80;;
36747;SDS011;22716;51.556;5.080;2023-02-28T08:23:52;7.13;;;2.77;;
36747;SDS011;22716;51.556;5.080;2023-02-28T08:26:22;2.10;;;1.40;;
36747;SDS011;22716;51.556;5.080;2023-02-28T08:28:51;26.53;;;2.03;;
36747;SDS011;22716;51.556;5.080;2023-02-28T08:31:20;6.70;;;2.10;;
36747;SDS011;22716;51.556;5.080;2023-02-28T08:33:48;3.00;;;1.70;;
36747;SDS011;22716;51.556;5.080;2023-02-28T08:36:21;1.87;;;1.30;;
36747;SDS011;22716;51.556;5.080;2023-02-28T08:38:49;3.20;;;1.40;;
36747;SDS011;22716;51.556;5.080;2023-02-28T08:41:18;5.87;;;1.73;;
36747;SDS011;22716;51.556;5.080;2023-02-28T08:43:47;6.07;;;1.10;;
36747;SDS011;22716;51.556;5.080;2023-02-28T08:46:15;2.57;;;1.00;;
36747;SDS011;22716;51.556;5.080;2023-02-28T08:48:44;2.60;;;1.23;;
36747;SDS011;22716;51.556;5.080;2023-02-28T08:51:14;10.63;;;1.50;;
36747;SDS011;22716;51.556;5.080;2023-02-28T08:56:18;1.33;;;1.10;;
36747;SDS011;22716;51.556;5.080;2023-02-28T08:58:48;2.37;;;1.00;;
36747;SDS011;22716;51.556;5.080;2023-02-28T09:01:21;3.80;;;1.30;;
36747;SDS011;22716;51.556;5.080;2023-02-28T09:03:52;1.87;;;1.23;;
36747;SDS011;22716;51.556;5.080;2023-02-28T09:06:22;1.57;;;1.00;;
36747;SDS011;22716;51.556;5.080;2023-02-28T09:08:55;1.83;;;1.27;;
36747;SDS011;22716;51.556;5.080;2023-02-28T09:11:26;1.98;;;1.38;;
36747;SDS011;22716;51.556;5.080;2023-02-28T09:13:57;3.33;;;1.20;;
36747;SDS011;22716;51.556;5.080;2023-02-28T09:16:26;7.57;;;1.60;;
36747;SDS011;22716;51.556;5.080;2023-02-28T09:18:54;3.23;;;1.30;;
36747;SDS011;22716;51.556;5.080;2023-02-28T09:21:23;3.57;;;1.40;;
36747;SDS011;22716;51.556;5.080;2023-02-28T09:23:55;3.10;;;1.30;;
36747;SDS011;22716;51.556;5.080;2023-02-28T09:26:25;4.40;;;2.00;;
36747;SDS011;22716;51.556;5.080;2023-02-28T09:28:55;2.73;;;1.37;;
36747;SDS011;22716;51.556;5.080;2023-02-28T09:31:25;1.63;;;1.20;;
36747;SDS011;22716;51.556;5.080;2023-02-28T09:33:56;4.47;;;1.10;;
36747;SDS011;22716;51.556;5.080;2023-02-28T09:36:26;3.43;;;1.80;;
36747;SDS011;22716;51.556;5.080;2023-02-28T09:38:59;3.33;;;2.10;;
36747;SDS011;22716;51.556;5.080;2023-02-28T09:41:29;3.27;;;0.80;;
36747;SDS011;22716;51.556;5.080;2023-02-28T09:44:05;1.77;;;1.37;;
36747;SDS011;22716;51.556;5.080;2023-02-28T09:46:42;2.57;;;1.63;;
36747;SDS011;22716;51.556;5.080;2023-02-28T09:51:47;1.33;;;1.10;;
36747;SDS011;22716;51.556;5.080;2023-02-28T09:54:22;4.80;;;1.13;;
36747;SDS011;22716;51.556;5.080;2023-02-28T09:56:56;1.30;;;1.13;;
36747;SDS011;22716;51.556;5.080;2023-02-28T09:59:32;2.17;;;1.03;;
36747;SDS011;22716;51.556;5.080;2023-02-28T10:05:15;0.85;;;0.80;;
36747;SDS011;22716;51.556;5.080;2023-02-28T10:07:50;2.20;;;1.00;;
36747;SDS011;22716;51.556;5.080;2023-02-28T10:10:35;1.40;;;1.23;;
36747;SDS011;22716;51.556;5.080;2023-02-28T10:13:13;1.20;;;1.20;;
36747;SDS011;22716;51.556;5.080;2023-02-28T10:15:49;1.67;;;1.00;;
36747;SDS011;22716;51.556;5.080;2023-02-28T10:18:23;1.63;;;1.10;;
36747;SDS011;22716;51.556;5.080;2023-02-28T10:20:55;3.37;;;1.10;;
36747;SDS011;22716;51.556;5.080;2023-02-28T10:23:27;1.40;;;1.00;;
36747;SDS011;22716;51.556;5.080;2023-02-28T10:26:05;1.77;;;1.40;;
36747;SDS011;22716;51.556;5.080;2023-02-28T10:28:41;1.33;;;1.23;;
36747;SDS011;22716;51.556;5.080;2023-02-28T10:31:11;1.30;;;1.20;;
36747;SDS011;22716;51.556;5.080;2023-02-28T10:33:45;3.33;;;1.50;;
36747;SDS011;22716;51.556;5.080;2023-02-28T10:36:15;4.20;;;1.40;;
36747;SDS011;22716;51.556;5.080;2023-02-28T10:38:47;2.93;;;1.50;;
36747;SDS011;22716;51.556;5.080;2023-02-28T10:41:27;1.60;;;1.20;;
36747;SDS011;22716;51.556;5.080;2023-02-28T10:44:13;1.23;;;1.10;;
36747;SDS011;22716;51.556;5.080;2023-02-28T10:46:45;1.87;;;0.93;;
36747;SDS011;22716;51.556;5.080;2023-02-28T10:49:17;1.40;;;1.23;;
36747;SDS011;22716;51.556;5.080;2023-02-28T10:51:52;1.10;;;1.00;;
36747;SDS011;22716;51.556;5.080;2023-02-28T10:54:27;1.30;;;1.10;;
36747;SDS011;22716;51.556;5.080;2023-02-28T10:57:18;1.43;;;0.90;;
36747;SDS011;22716;51.556;5.080;2023-02-28T10:59:50;2.97;;;1.47;;
36747;SDS011;22716;51.556;5.080;2023-02-28T11:02:31;1.83;;;1.20;;
36747;SDS011;22716;51.556;5.080;2023-02-28T11:05:03;2.03;;;1.40;;
36747;SDS011;22716;51.556;5.080;2023-02-28T11:07:52;1.33;;;1.10;;
36747;SDS011;22716;51.556;5.080;2023-02-28T11:10:23;1.93;;;1.30;;
36747;SDS011;22716;51.556;5.080;2023-02-28T11:13:00;3.37;;;1.30;;
36747;SDS011;22716;51.556;5.080;2023-02-28T11:15:31;1.73;;;1.10;;
36747;SDS011;22716;51.556;5.080;2023-02-28T11:18:02;5.43;;;1.20;;
36747;SDS011;22716;51.556;5.080;2023-02-28T11:20:47;1.30;;;1.10;;
36747;SDS011;22716;51.556;5.080;2023-02-28T11:23:17;1.60;;;1.03;;
36747;SDS011;22716;51.556;5.080;2023-02-28T11:25:49;1.30;;;1.20;;
36747;SDS011;22716;51.556;5.080;2023-02-28T11:28:26;4.15;;;1.10;;
36747;SDS011;22716;51.556;5.080;2023-02-28T11:31:02;1.83;;;0.93;;
36747;SDS011;22716;51.556;5.080;2023-02-28T11:33:41;1.80;;;1.40;;
36747;SDS011;22716;51.556;5.080;2023-02-28T11:36:12;2.10;;;1.43;;
36747;SDS011;22716;51.556;5.080;2023-02-28T11:38:42;3.17;;;1.67;;
36747;SDS011;22716;51.556;5.080;2023-02-28T11:41:18;2.07;;;0.70;;
36747;SDS011;22716;51.556;5.080;2023-02-28T11:44:09;2.63;;;1.13;;
36747;SDS011;22716;51.556;5.080;2023-02-28T11:46:52;1.83;;;1.13;;
36747;SDS011;22716;51.556;5.080;2023-02-28T11:49:29;2.45;;;1.30;;
36747;SDS011;22716;51.556;5.080;2023-02-28T11:52:05;2.00;;;0.90;;
36747;SDS011;22716;51.556;5.080;2023-02-28T11:54:55;2.23;;;1.30;;
36747;SDS011;22716;51.556;5.080;2023-02-28T11:57:50;1.10;;;1.00;;
36747;SDS011;22716;51.556;5.080;2023-02-28T12:00:38;1.47;;;1.33;;
36747;SDS011;22716;51.556;5.080;2023-02-28T12:05:49;1.43;;;0.77;;
36747;SDS011;22716;51.556;5.080;2023-02-28T12:08:27;2.37;;;1.20;;
36747;SDS011;22716;51.556;5.080;2023-02-28T12:11:11;3.65;;;1.25;;
36747;SDS011;22716;51.556;5.080;2023-02-28T12:13:49;3.33;;;1.07;;
36747;SDS011;22716;51.556;5.080;2023-02-28T12:16:47;3.10;;;1.63;;
36747;SDS011;22716;51.556;5.080;2023-02-28T12:19:25;4.47;;;1.10;;
36747;SDS011;22716;51.556;5.080;2023-02-28T12:25:04;1.73;;;1.27;;
36747;SDS011;22716;51.556;5.080;2023-02-28T12:27:50;3.67;;;1.10;;
36747;SDS011;22716;51.556;5.080;2023-02-28T12:30:22;1.30;;;1.10;;
36747;SDS011;22716;51.556;5.080;2023-02-28T12:32:57;2.70;;;1.17;;
36747;SDS011;22716;51.556;5.080;2023-02-28T12:35:33;1.07;;;1.03;;
36747;SDS011;22716;51.556;5.080;2023-02-28T12:38:08;6.10;;;1.10;;
36747;SDS011;22716;51.556;5.080;2023-02-28T12:40:44;4.00;;;1.47;;
36747;SDS011;22716;51.556;5.080;2023-02-28T12:43:16;1.23;;;1.13;;
36747;SDS011;22716;51.556;5.080;2023-02-28T12:45:48;1.87;;;1.67;;
36747;SDS011;22716;51.556;5.080;2023-02-28T12:48:24;1.87;;;1.30;;
36747;SDS011;22716;51.556;5.080;2023-02-28T12:50:57;1.57;;;1.27;;
36747;SDS011;22716;51.556;5.080;2023-02-28T12:53:28;1.60;;;1.17;;
36747;SDS011;22716;51.556;5.080;2023-02-28T12:56:09;2.27;;;1.43;;
36747;SDS011;22716;51.556;5.080;2023-02-28T12:58:45;5.93;;;1.97;;
36747;SDS011;22716;51.556;5.080;2023-02-28T13:01:26;2.38;;;1.67;;
36747;SDS011;22716;51.556;5.080;2023-02-28T13:04:27;2.03;;;1.30;;
36747;SDS011;22716;51.556;5.080;2023-02-28T13:07:13;3.90;;;1.73;;
36747;SDS011;22716;51.556;5.080;2023-02-28T13:09:59;3.07;;;1.67;;
36747;SDS011;22716;51.556;5.080;2023-02-28T13:12:31;5.47;;;1.30;;
36747;SDS011;22716;51.556;5.080;2023-02-28T13:15:04;1.40;;;1.20;;
36747;SDS011;22716;51.556;5.080;2023-02-28T13:17:38;3.10;;;2.33;;
36747;SDS011;22716;51.556;5.080;2023-02-28T13:20:17;1.87;;;1.50;;
36747;SDS011;22716;51.556;5.080;2023-02-28T13:22:49;3.73;;;1.67;;
36747;SDS011;22716;51.556;5.080;2023-02-28T13:31:19;3.67;;;1.97;;
36747;SDS011;22716;51.556;5.080;2023-02-28T13:36:36;3.23;;;1.40;;
36747;SDS011;22716;51.556;5.080;2023-02-28T13:39:20;1.83;;;1.40;;
36747;SDS011;22716;51.556;5.080;2023-02-28T13:47:52;1.43;;;1.33;;
36747;SDS011;22716;51.556;5.080;2023-02-28T13:50:24;1.73;;;1.57;;
36747;SDS011;22716;51.556;5.080;2023-02-28T13:53:05;1.67;;;1.30;;
36747;SDS011;22716;51.556;5.080;2023-02-28T13:55:51;3.10;;;1.57;;
36747;SDS011;22716;51.556;5.080;2023-02-28T13:58:33;2.67;;;2.13;;
36747;SDS011;22716;51.556;5.080;2023-02-28T14:04:21;3.17;;;1.37;;
36747;SDS011;22716;51.556;5.080;2023-02-28T14:07:20;2.53;;;1.57;;
36747;SDS011;22716;51.556;5.080;2023-02-28T14:09:57;2.37;;;1.30;;
36747;SDS011;22716;51.556;5.080;2023-02-28T14:15:27;2.57;;;1.47;;
36747;SDS011;22716;51.556;5.080;2023-02-28T14:18:05;1.93;;;1.77;;
36747;SDS011;22716;51.556;5.080;2023-02-28T14:20:44;3.43;;;1.67;;
36747;SDS011;22716;51.556;5.080;2023-02-28T14:23:18;10.07;;;1.83;;
36747;SDS011;22716;51.556;5.080;2023-02-28T14:28:43;1.77;;;1.37;;
36747;SDS011;22716;51.556;5.080;2023-02-28T14:31:23;4.43;;;1.80;;
36747;SDS011;22716;51.556;5.080;2023-02-28T14:34:02;6.27;;;1.67;;
36747;SDS011;22716;51.556;5.080;2023-02-28T14:36:45;3.60;;;1.73;;
36747;SDS011;22716;51.556;5.080;2023-02-28T14:39:16;1.40;;;1.30;;
36747;SDS011;22716;51.556;5.080;2023-02-28T14:41:51;3.43;;;1.67;;
36747;SDS011;22716;51.556;5.080;2023-02-28T14:44:20;2.20;;;1.77;;
36747;SDS011;22716;51.556;5.080;2023-02-28T14:46:52;25.73;;;4.40;;
36747;SDS011;22716;51.556;5.080;2023-02-28T14:49:24;2.97;;;1.90;;
36747;SDS011;22716;51.556;5.080;2023-02-28T14:52:05;3.17;;;1.83;;
36747;SDS011;22716;51.556;5.080;2023-02-28T14:54:38;2.80;;;1.83;;
36747;SDS011;22716;51.556;5.080;2023-02-28T14:57:18;2.73;;;1.70;;
36747;SDS011;22716;51.556;5.080;2023-02-28T14:59:56;3.90;;;1.80;;
36747;SDS011;22716;51.556;5.080;2023-02-28T15:02:30;2.23;;;1.47;;
36747;SDS011;22716;51.556;5.080;2023-02-28T15:05:10;19.10;;;3.40;;
36747;SDS011;22716;51.556;5.080;2023-02-28T15:08:00;17.83;;;3.40;;
36747;SDS011;22716;51.556;5.080;2023-02-28T15:10:32;2.47;;;1.70;;
36747;SDS011;22716;51.556;5.080;2023-02-28T15:13:05;3.20;;;1.63;;
36747;SDS011;22716;51.556;5.080;2023-02-28T15:15:43;3.93;;;2.03;;
36747;SDS011;22716;51.556;5.080;2023-02-28T15:18:15;1.63;;;1.50;;
36747;SDS011;22716;51.556;5.080;2023-02-28T15:20:56;1.80;;;1.60;;
36747;SDS011;22716;51.556;5.080;2023-02-28T15:23:29;8.90;;;2.00;;
36747;SDS011;22716;51.556;5.080;2023-02-28T15:25:59;2.80;;;1.60;;
36747;SDS011;22716;51.556;5.080;2023-02-28T15:28:31;2.30;;;2.00;;
36747;SDS011;22716;51.556;5.080;2023-02-28T15:31:01;3.40;;;1.73;;
36747;SDS011;22716;51.556;5.080;2023-02-28T15:33:32;4.40;;;2.33;;
36747;SDS011;22716;51.556;5.080;2023-02-28T15:36:06;5.47;;;2.00;;
36747;SDS011;22716;51.556;5.080;2023-02-28T15:38:40;4.57;;;2.00;;
36747;SDS011;22716;51.556;5.080;2023-02-28T15:41:21;2.77;;;1.77;;
36747;SDS011;22716;51.556;5.080;2023-02-28T15:46:59;4.97;;;2.23;;
36747;SDS011;22716;51.556;5.080;2023-02-28T15:49:33;5.67;;;2.00;;
36747;SDS011;22716;51.556;5.080;2023-02-28T15:52:09;7.13;;;2.67;;
36747;SDS011;22716;51.556;5.080;2023-02-28T15:54:42;4.93;;;2.40;;
36747;SDS011;22716;51.556;5.080;2023-02-28T15:57:13;4.83;;;2.37;;
36747;SDS011;22716;51.556;5.080;2023-02-28T15:59:48;3.10;;;2.27;;
36747;SDS011;22716;51.556;5.080;2023-02-28T16:02:21;1.83;;;1.23;;
36747;SDS011;22716;51.556;5.080;2023-02-28T16:04:58;3.30;;;1.90;;
36747;SDS011;22716;51.556;5.080;2023-02-28T16:07:46;2.40;;;2.17;;
36747;SDS011;22716;51.556;5.080;2023-02-28T16:10:15;3.00;;;1.80;;
36747;SDS011;22716;51.556;5.080;2023-02-28T16:12:44;4.80;;;2.40;;